Time;durP1;ratioP1;P1;durP2;ratioP2;P2;SDS_P1;SDS_P2;PMS_P1;PMS_P2;Temp;Humidity;BMP_temperature;BMP_pressure;BME280_temperature;BME280_humidity;BME280_pressure;Samples;Min_cycle;Max_cycle;Signal;HPM_P1;HPM_P2
2023/03/06 00:00:51;;;;;;;10.40;5.47;;;;;;;7.36;51.33;99892.50;5070079;28;20208;-75
2023/03/06 00:03:19;;;;;;;10.80;5.00;;;;;;;7.43;51.14;99886.53;5071772;28;20213;-72
2023/03/06 00:05:49;;;;;;;11.10;6.23;;;;;;;7.40;50.93;99884.16;5072315;28;20227;-74
2023/03/06 00:08:17;;;;;;;11.23;6.23;;;;;;;7.38;51.33;99882.66;5069095;28;20266;-75
2023/03/06 00:10:45;;;;;;;9.87;5.53;;;;;;;7.36;51.35;99871.41;5069758;28;20222;-73
2023/03/06 00:13:17;;;;;;;10.30;5.40;;;;;;;7.22;51.66;99863.94;5073574;28;20770;-73
2023/03/06 00:15:46;;;;;;;10.37;5.73;;;;;;;7.20;51.93;99866.72;5072850;28;20214;-73
2023/03/06 00:18:14;;;;;;;10.87;5.50;;;;;;;7.20;51.97;99871.16;5075048;28;20219;-74
2023/03/06 00:20:43;;;;;;;7.73;4.70;;;;;;;7.05;52.22;99874.22;5072508;28;20220;-71
2023/03/06 00:23:13;;;;;;;10.50;5.17;;;;;;;7.13;52.22;99861.16;5069744;28;20337;-74
2023/03/06 00:25:42;;;;;;;11.20;5.37;;;;;;;7.26;52.03;99865.31;5070448;28;20571;-73
2023/03/06 00:28:11;;;;;;;12.17;5.80;;;;;;;7.29;51.64;99865.88;5070776;28;20287;-75
2023/03/06 00:30:39;;;;;;;10.47;6.07;;;;;;;7.10;51.92;99858.81;5069388;28;20203;-74
2023/03/06 00:33:07;;;;;;;12.80;6.10;;;;;;;7.03;52.37;99870.06;5071040;28;20870;-75
2023/03/06 00:35:34;;;;;;;11.93;6.00;;;;;;;7.01;52.48;99862.31;5072071;28;20230;-75
2023/03/06 00:38:02;;;;;;;11.17;5.60;;;;;;;7.03;52.82;99860.38;5069413;28;20293;-74
2023/03/06 00:40:31;;;;;;;9.33;5.37;;;;;;;7.10;52.85;99855.34;5070441;28;20204;-74
2023/03/06 00:42:59;;;;;;;10.77;5.60;;;;;;;7.21;52.53;99855.22;5074006;28;20204;-73
2023/03/06 00:45:27;;;;;;;8.93;4.90;;;;;;;7.21;52.23;99846.47;5070736;28;20208;-74
2023/03/06 00:47:54;;;;;;;11.30;5.37;;;;;;;7.20;52.27;99850.06;5072569;28;20303;-74
2023/03/06 00:50:22;;;;;;;10.10;5.50;;;;;;;7.22;52.15;99848.09;5069112;28;20207;-73
2023/03/06 00:52:50;;;;;;;9.63;5.00;;;;;;;7.29;51.90;99846.59;5070938;28;20240;-72
2023/03/06 00:55:18;;;;;;;7.97;4.80;;;;;;;7.26;51.76;99838.94;5075357;28;20215;-73
2023/03/06 00:57:47;;;;;;;11.13;4.93;;;;;;;7.30;51.44;99837.69;5075220;28;20234;-73
2023/03/06 01:00:15;;;;;;;8.63;4.73;;;;;;;7.34;51.56;99833.78;5072366;28;20212;-73
2023/03/06 01:02:43;;;;;;;9.53;5.23;;;;;;;7.44;51.16;99829.31;5074562;28;20208;-73
2023/03/06 01:05:13;;;;;;;7.57;4.77;;;;;;;7.43;50.83;99825.84;5078488;28;20257;-74
2023/03/06 01:07:41;;;;;;;11.63;5.27;;;;;;;7.44;50.86;99829.31;5073823;28;20294;-74
2023/03/06 01:10:10;;;;;;;9.43;5.17;;;;;;;7.51;50.67;99827.78;5073948;28;20729;-72
2023/03/06 01:12:38;;;;;;;11.67;5.13;;;;;;;7.50;50.59;99815.56;5076048;28;20206;-73
2023/03/06 01:15:09;;;;;;;9.67;5.00;;;;;;;7.43;50.49;99815.31;5075286;28;20217;-72
2023/03/06 01:17:37;;;;;;;9.17;4.90;;;;;;;7.46;50.32;99808.91;5075713;28;20230;-74
2023/03/06 01:20:05;;;;;;;10.60;4.87;;;;;;;7.55;50.27;99810.69;5078839;28;20285;-71
2023/03/06 01:22:33;;;;;;;9.33;4.60;;;;;;;7.55;50.17;99808.06;5074612;28;20217;-72
2023/03/06 01:25:01;;;;;;;10.97;5.00;;;;;;;7.60;50.23;99805.78;5074523;28;20311;-73
2023/03/06 01:27:29;;;;;;;10.30;4.77;;;;;;;7.62;50.15;99793.28;5076199;28;20202;-74
2023/03/06 01:29:56;;;;;;;10.47;5.20;;;;;;;7.67;49.96;99796.31;5077669;28;20204;-74
2023/03/06 01:32:25;;;;;;;8.53;4.87;;;;;;;7.68;49.86;99792.69;5073639;28;20208;-74
2023/03/06 01:34:53;;;;;;;9.43;4.87;;;;;;;7.68;50.22;99782.16;5077784;28;21667;-73
2023/03/06 01:37:21;;;;;;;10.17;5.30;;;;;;;7.66;49.97;99778.81;5076443;28;20224;-73
2023/03/06 01:39:49;;;;;;;13.30;4.97;;;;;;;7.66;49.82;99776.19;5074376;28;20207;-73
2023/03/06 01:42:17;;;;;;;9.97;5.17;;;;;;;7.67;50.02;99772.56;5075367;28;20849;-72
2023/03/06 01:45:02;;;;;;;11.00;4.93;;;;;;;7.71;49.94;99768.66;5076099;28;20573;-72
2023/03/06 01:47:31;;;;;;;9.53;5.13;;;;;;;7.70;49.96;99769.66;5074308;28;20207;-74
2023/03/06 01:50:02;;;;;;;9.60;5.03;;;;;;;7.67;49.89;99759.38;5071280;28;20218;-74
2023/03/06 01:52:32;;;;;;;9.30;5.50;;;;;;;7.66;49.76;99757.72;5076618;28;20208;-72
2023/03/06 01:55:05;;;;;;;10.57;5.47;;;;;;;7.69;50.01;99761.88;5076812;28;20582;-73
2023/03/06 01:57:36;;;;;;;10.97;4.90;;;;;;;7.66;50.01;99757.72;5076049;28;20664;-73
2023/03/06 02:00:08;;;;;;;11.77;5.30;;;;;;;7.65;50.02;99757.88;5074541;28;20324;-74
2023/03/06 02:02:38;;;;;;;11.17;5.63;;;;;;;7.69;50.01;99759.22;5071755;28;21905;-73
2023/03/06 02:05:07;;;;;;;12.67;5.40;;;;;;;7.69;49.96;99753.94;5072167;28;20207;-71
2023/03/06 02:07:37;;;;;;;11.10;5.03;;;;;;;7.66;49.99;99749.78;5071593;28;20216;-73
2023/03/06 02:10:05;;;;;;;10.57;5.23;;;;;;;7.67;49.94;99748.81;5071859;28;20220;-74
2023/03/06 02:12:33;;;;;;;11.27;5.40;;;;;;;7.68;49.99;99744.38;5072280;28;20209;-73
2023/03/06 02:15:01;;;;;;;10.83;5.83;;;;;;;7.69;50.11;99752.16;5072322;28;20282;-73
2023/03/06 02:17:29;;;;;;;13.53;5.20;;;;;;;7.65;50.09;99748.13;5069612;28;20901;-74
2023/03/06 02:20:07;;;;;;;20.10;6.80;;;;;;;7.64;50.12;99743.84;5070635;28;20218;-73
2023/03/06 02:22:40;;;;;;;9.40;5.40;;;;;;;7.65;50.15;99734.13;5072991;28;20209;-72
2023/03/06 02:25:13;;;;;;;9.60;5.20;;;;;;;7.61;50.37;99748.59;5073924;28;20210;-74
2023/03/06 02:27:43;;;;;;;8.93;5.27;;;;;;;7.63;50.35;99731.63;5075351;28;20726;-73
2023/03/06 02:30:18;;;;;;;10.20;5.50;;;;;;;7.67;50.28;99730.34;5072583;28;20575;-74
2023/03/06 02:32:45;;;;;;;10.10;5.20;;;;;;;7.66;50.26;99730.50;5075567;28;20230;-73
2023/03/06 02:35:20;;;;;;;10.33;5.13;;;;;;;7.62;50.49;99727.34;5071814;28;20252;-73
2023/03/06 02:37:48;;;;;;;11.43;5.90;;;;;;;7.66;50.40;99731.31;5074246;28;20268;-72
2023/03/06 02:40:18;;;;;;;9.77;5.33;;;;;;;7.61;50.48;99728.31;5075382;28;20211;-71
2023/03/06 02:42:49;;;;;;;13.93;5.57;;;;;;;7.61;50.26;99719.56;5074225;28;20215;-74
2023/03/06 02:45:23;;;;;;;12.13;5.77;;;;;;;7.68;50.39;99716.19;5073040;28;20222;-73
2023/03/06 02:47:50;;;;;;;10.57;5.60;;;;;;;7.61;50.80;99717.75;5073722;28;20621;-72
2023/03/06 02:50:18;;;;;;;9.57;5.13;;;;;;;7.66;50.67;99715.50;5072877;28;20257;-74
2023/03/06 02:52:46;;;;;;;11.03;5.13;;;;;;;7.67;50.53;99708.41;5073463;28;20839;-73
2023/03/06 02:55:14;;;;;;;9.97;5.67;;;;;;;7.65;50.70;99710.38;5071554;28;20250;-74
2023/03/06 02:57:42;;;;;;;12.10;5.57;;;;;;;7.62;50.56;99711.50;5074229;28;20275;-72
2023/03/06 03:00:13;;;;;;;9.57;5.60;;;;;;;7.63;50.72;99707.06;5074663;28;20299;-76
2023/03/06 03:02:40;;;;;;;11.20;6.07;;;;;;;7.59;50.81;99708.31;5073130;28;20892;-75
2023/03/06 03:05:08;;;;;;;10.50;5.37;;;;;;;7.57;50.86;99706.66;5072032;28;20199;-73
2023/03/06 03:07:36;;;;;;;13.23;5.60;;;;;;;7.55;50.79;99706.00;5072796;28;20641;-73
2023/03/06 03:10:05;;;;;;;11.50;6.33;;;;;;;7.62;50.60;99698.31;5070740;28;20216;-77
2023/03/06 03:12:33;;;;;;;11.20;5.83;;;;;;;7.64;50.48;99696.34;5073692;28;20972;-73
2023/03/06 03:15:01;;;;;;;11.00;5.93;;;;;;;7.65;50.46;99705.91;5075176;28;20867;-74
2023/03/06 03:17:30;;;;;;;11.00;5.30;;;;;;;7.66;50.55;99698.81;5072986;28;20221;-72
2023/03/06 03:19:58;;;;;;;9.33;5.60;;;;;;;7.64;50.43;99696.34;5073037;28;20284;-76
2023/03/06 03:22:25;;;;;;;10.27;5.33;;;;;;;7.63;50.59;99694.69;5073904;28;20686;-72
2023/03/06 03:24:53;;;;;;;13.03;6.13;;;;;;;7.66;50.59;99688.28;5072660;28;20222;-74
2023/03/06 03:27:21;;;;;;;11.70;6.37;;;;;;;7.67;50.55;99693.41;5073564;28;20215;-77
2023/03/06 03:29:48;;;;;;;12.07;7.03;;;;;;;7.65;50.60;99690.06;5071962;28;20213;-75
2023/03/06 03:32:16;;;;;;;10.73;5.87;;;;;;;7.62;50.49;99695.66;5077670;28;20213;-74
2023/03/06 03:34:45;;;;;;;11.07;5.60;;;;;;;7.58;50.66;99691.66;5074167;28;20261;-69
2023/03/06 03:37:13;;;;;;;11.73;5.93;;;;;;;7.58;50.73;99686.38;5070861;28;21143;-70
2023/03/06 03:39:41;;;;;;;13.60;6.67;;;;;;;7.53;51.07;99683.38;5072434;28;20229;-68
2023/03/06 03:42:09;;;;;;;11.87;6.63;;;;;;;7.64;50.71;99685.81;5070444;28;20226;-71
2023/03/06 03:44:37;;;;;;;11.13;6.37;;;;;;;7.64;50.90;99684.97;5073857;28;20932;-68
2023/03/06 03:47:05;;;;;;;11.97;6.07;;;;;;;7.66;50.61;99683.81;5071618;28;20227;-68
2023/03/06 03:49:33;;;;;;;13.93;6.30;;;;;;;7.65;50.42;99684.00;5068420;28;20210;-68
2023/03/06 03:52:02;;;;;;;12.33;6.30;;;;;;;7.64;50.62;99680.53;5071638;28;20205;-69
2023/03/06 03:54:30;;;;;;;11.60;6.53;;;;;;;7.56;50.87;99680.44;5072228;28;20992;-69
2023/03/06 03:56:57;;;;;;;13.30;7.17;;;;;;;7.58;50.87;99675.81;5072765;28;20228;-67
2023/03/06 03:59:25;;;;;;;9.87;5.77;;;;;;;7.57;51.19;99676.78;5070462;28;20747;-68
2023/03/06 04:01:54;;;;;;;12.13;6.17;;;;;;;7.60;51.01;99673.88;5070073;28;20249;-70
2023/03/06 04:04:23;;;;;;;13.30;7.03;;;;;;;7.61;51.09;99674.72;5070972;28;20212;-68
2023/03/06 04:06:50;;;;;;;12.97;6.37;;;;;;;7.56;51.19;99667.25;5070278;28;20598;-67
2023/03/06 04:09:19;;;;;;;11.27;6.23;;;;;;;7.61;51.00;99664.97;5072585;28;20758;-68
2023/03/06 04:11:47;;;;;;;14.17;7.10;;;;;;;7.62;51.15;99661.38;5071005;28;20296;-68
2023/03/06 04:14:15;;;;;;;15.87;7.20;;;;;;;7.64;51.19;99656.78;5070882;28;20213;-66
2023/03/06 04:16:43;;;;;;;15.13;7.40;;;;;;;7.57;51.11;99668.88;5069361;28;20589;-70
2023/03/06 04:19:11;;;;;;;14.20;7.83;;;;;;;7.60;51.27;99659.84;5071175;28;20233;-66
2023/03/06 04:21:38;;;;;;;12.87;7.33;;;;;;;7.60;51.17;99657.22;5071162;28;21021;-68
2023/03/06 04:24:07;;;;;;;16.77;8.50;;;;;;;7.56;51.29;99651.41;5068880;28;20278;-68
2023/03/06 04:26:36;;;;;;;19.97;7.97;;;;;;;7.52;51.40;99655.31;5069561;28;20222;-67
2023/03/06 04:29:04;;;;;;;16.93;8.57;;;;;;;7.55;51.39;99660.31;5074575;28;20204;-69
2023/03/06 04:31:31;;;;;;;15.73;7.87;;;;;;;7.49;51.50;99650.31;5077133;28;20214;-67
2023/03/06 04:33:59;;;;;;;15.47;7.93;;;;;;;7.42;51.79;99644.00;5076882;28;20212;-69
2023/03/06 04:36:29;;;;;;;14.43;7.60;;;;;;;7.50;51.86;99641.44;5073971;28;20242;-67
2023/03/06 04:38:57;;;;;;;16.27;8.20;;;;;;;7.47;51.89;99642.59;5076601;28;20231;-67
2023/03/06 04:41:25;;;;;;;14.57;6.53;;;;;;;7.40;52.13;99636.22;5075118;28;20205;-69
2023/03/06 04:43:54;;;;;;;15.80;7.90;;;;;;;7.31;52.59;99644.19;5075391;28;20212;-69
2023/03/06 04:46:22;;;;;;;13.97;7.73;;;;;;;7.20;52.97;99639.13;5075610;28;20216;-69
2023/03/06 04:48:50;;;;;;;15.07;7.83;;;;;;;7.19;53.36;99633.03;5076308;28;20795;-67
2023/03/06 04:51:17;;;;;;;18.10;8.20;;;;;;;7.26;53.37;99628.00;5073290;28;20308;-68
2023/03/06 04:53:45;;;;;;;13.40;7.57;;;;;;;7.19;53.85;99630.38;5075344;28;20632;-67
2023/03/06 04:56:13;;;;;;;15.47;8.40;;;;;;;7.13;54.38;99629.16;5072624;28;20214;-70
2023/03/06 04:58:42;;;;;;;15.17;8.13;;;;;;;7.20;54.47;99628.59;5074675;28;20231;-68
2023/03/06 05:01:11;;;;;;;14.17;7.97;;;;;;;7.22;54.69;99637.16;5072767;28;20219;-69
2023/03/06 05:03:39;;;;;;;15.03;8.03;;;;;;;7.21;55.03;99622.34;5075359;28;20620;-68
2023/03/06 05:06:07;;;;;;;18.57;8.10;;;;;;;7.18;55.47;99626.09;5071828;28;20231;-68
2023/03/06 05:08:35;;;;;;;16.03;8.47;;;;;;;7.23;55.48;99628.28;5074935;28;20550;-68
2023/03/06 05:11:03;;;;;;;14.37;7.90;;;;;;;7.28;55.57;99631.31;5077174;28;20209;-69
2023/03/06 05:13:30;;;;;;;14.13;8.50;;;;;;;7.28;55.33;99621.59;5078094;28;20212;-67
2023/03/06 05:16:02;;;;;;;15.03;8.67;;;;;;;7.21;55.92;99620.53;5074311;28;20219;-67
2023/03/06 05:18:32;;;;;;;13.47;7.17;;;;;;;7.23;55.85;99621.19;5074871;28;20296;-68
2023/03/06 05:20:59;;;;;;;17.80;8.10;;;;;;;7.27;55.81;99619.94;5075676;28;21201;-69
2023/03/06 05:23:28;;;;;;;14.10;7.87;;;;;;;7.23;56.07;99618.56;5076383;28;20211;-66
2023/03/06 05:25:56;;;;;;;18.60;8.53;;;;;;;7.25;55.80;99623.69;5075230;28;20207;-69
2023/03/06 05:28:25;;;;;;;15.77;8.10;;;;;;;7.22;56.07;99621.34;5078845;28;20565;-72
2023/03/06 05:30:53;;;;;;;16.70;8.03;;;;;;;7.16;56.17;99614.84;5075058;28;20514;-66
2023/03/06 05:33:20;;;;;;;15.30;8.23;;;;;;;7.22;56.00;99626.59;5074910;28;20216;-68
2023/03/06 05:35:50;;;;;;;16.70;8.50;;;;;;;7.22;55.83;99616.06;5075147;28;20236;-70
2023/03/06 05:38:18;;;;;;;14.17;8.03;;;;;;;7.17;55.87;99608.59;5072476;28;20212;-68
2023/03/06 05:40:46;;;;;;;15.80;8.53;;;;;;;7.07;55.90;99613.09;5072166;28;20243;-67
2023/03/06 05:43:15;;;;;;;15.53;7.83;;;;;;;7.03;56.16;99615.22;5073837;28;20302;-73
2023/03/06 05:45:43;;;;;;;13.50;7.90;;;;;;;7.07;56.08;99607.81;5072761;28;20312;-67
2023/03/06 05:48:13;;;;;;;17.87;8.27;;;;;;;7.17;55.82;99614.72;5074703;28;20256;-70
2023/03/06 05:50:40;;;;;;;16.17;8.63;;;;;;;7.18;55.75;99611.09;5071590;28;20215;-71
2023/03/06 05:53:09;;;;;;;19.70;8.03;;;;;;;7.21;55.91;99609.16;5073053;28;20650;-66
2023/03/06 05:55:37;;;;;;;14.20;8.20;;;;;;;7.21;55.85;99614.44;5071482;28;20213;-68
2023/03/06 05:58:05;;;;;;;15.23;8.10;;;;;;;7.18;55.91;99611.09;5072302;28;20236;-67
2023/03/06 06:00:32;;;;;;;15.40;7.90;;;;;;;7.26;55.82;99614.81;5074913;28;20258;-66
2023/03/06 06:03:01;;;;;;;14.07;7.80;;;;;;;7.25;55.83;99611.34;5072399;28;20743;-69
2023/03/06 06:05:28;;;;;;;15.33;8.23;;;;;;;7.24;55.67;99611.47;5074775;28;20223;-69
2023/03/06 06:07:56;;;;;;;16.90;8.37;;;;;;;7.25;55.85;99611.34;5073856;28;20572;-69
2023/03/06 06:10:25;;;;;;;15.23;7.93;;;;;;;7.28;55.78;99615.50;5072121;28;20263;-67
2023/03/06 06:12:53;;;;;;;16.90;9.13;;;;;;;7.31;55.70;99612.53;5073656;28;20204;-69
2023/03/06 06:15:20;;;;;;;19.97;9.23;;;;;;;7.28;55.90;99611.06;5074589;28;20555;-69
2023/03/06 06:17:48;;;;;;;14.50;7.70;;;;;;;7.22;56.15;99613.44;5073338;28;20210;-70
2023/03/06 06:20:16;;;;;;;17.00;8.37;;;;;;;7.18;56.06;99616.38;5073853;28;20235;-70
2023/03/06 06:22:43;;;;;;;18.13;8.17;;;;;;;7.13;56.23;99613.34;5074849;28;20252;-67
2023/03/06 06:25:11;;;;;;;17.23;8.87;;;;;;;7.07;56.37;99607.81;5073840;28;20211;-69
2023/03/06 06:27:40;;;;;;;17.60;9.23;;;;;;;7.08;56.23;99625.31;5073970;28;20206;-69
2023/03/06 06:30:11;;;;;;;15.40;7.90;;;;;;;7.10;56.33;99618.91;5074262;28;20200;-68
2023/03/06 06:32:38;;;;;;;17.07;8.63;;;;;;;7.08;56.55;99612.13;5073554;28;20233;-68
2023/03/06 06:35:07;;;;;;;18.60;8.57;;;;;;;7.11;56.56;99623.22;5074994;28;21163;-69
2023/03/06 06:37:35;;;;;;;15.73;8.70;;;;;;;7.12;56.40;99622.22;5076958;28;20203;-69
2023/03/06 06:40:04;;;;;;;16.17;9.00;;;;;;;7.13;56.29;99623.03;5076516;28;20224;-69
2023/03/06 06:42:32;;;;;;;15.90;8.40;;;;;;;7.15;56.16;99621.09;5074567;28;20302;-66
2023/03/06 06:45:09;;;;;;;16.13;8.97;;;;;;;7.11;56.42;99617.94;5074785;28;20207;-67
2023/03/06 06:47:39;;;;;;;16.43;9.03;;;;;;;7.03;56.67;99617.84;5073768;28;20239;-66
2023/03/06 06:50:11;;;;;;;17.90;9.03;;;;;;;6.96;56.97;99616.75;5073516;28;20205;-67
2023/03/06 06:52:39;;;;;;;18.10;9.20;;;;;;;6.95;57.17;99616.91;5071292;28;20294;-68
2023/03/06 06:55:07;;;;;;;16.20;8.60;;;;;;;7.00;57.04;99619.94;5075970;28;21103;-66
2023/03/06 06:57:35;;;;;;;17.20;8.77;;;;;;;7.05;57.00;99621.16;5073890;28;20214;-67
2023/03/06 07:00:04;;;;;;;16.17;9.47;;;;;;;7.05;56.88;99621.16;5073798;28;20228;-67
2023/03/06 07:02:33;;;;;;;17.03;9.33;;;;;;;7.10;56.71;99626.81;5072362;28;22234;-68
2023/03/06 07:05:00;;;;;;;15.93;9.13;;;;;;;7.11;57.17;99625.84;5075656;28;20817;-68
2023/03/06 07:07:34;;;;;;;17.90;9.33;;;;;;;7.17;57.27;99632.34;5072053;28;20293;-67
2023/03/06 07:10:04;;;;;;;18.07;8.90;;;;;;;7.21;57.10;99625.81;5072869;28;21023;-67
2023/03/06 07:12:33;;;;;;;17.80;8.60;;;;;;;7.29;56.95;99625.06;5073347;28;21058;-67
2023/03/06 07:15:01;;;;;;;17.73;9.63;;;;;;;7.34;56.69;99631.53;5073907;28;20211;-67
2023/03/06 07:17:29;;;;;;;18.60;9.63;;;;;;;7.36;56.69;99632.22;5072312;28;20655;-67
2023/03/06 07:19:58;;;;;;;18.57;10.50;;;;;;;7.35;56.83;99627.09;5074425;28;21068;-68
2023/03/06 07:22:26;;;;;;;16.47;8.00;;;;;;;7.37;56.92;99627.78;5073692;28;20209;-67
2023/03/06 07:24:58;;;;;;;17.70;9.37;;;;;;;7.47;56.80;99625.94;5075048;28;20206;-67
2023/03/06 07:27:26;;;;;;;18.30;9.43;;;;;;;7.52;56.59;99619.22;5076020;28;20217;-67
2023/03/06 07:29:54;;;;;;;15.50;8.60;;;;;;;7.57;56.42;99624.03;5071443;28;20221;-67
2023/03/06 07:32:21;;;;;;;17.83;9.53;;;;;;;7.64;56.34;99614.56;5073816;28;20213;-67
2023/03/06 07:34:49;;;;;;;20.20;9.77;;;;;;;7.62;56.31;99619.16;5073504;28;20226;-66
2023/03/06 07:37:18;;;;;;;20.87;9.83;;;;;;;7.56;56.63;99615.28;5074637;28;20265;-67
2023/03/06 07:39:48;;;;;;;19.40;9.60;;;;;;;7.63;56.44;99610.25;5072531;28;20290;-67
2023/03/06 07:42:16;;;;;;;18.93;9.30;;;;;;;7.65;56.53;99618.84;5073146;28;20212;-67
2023/03/06 07:44:43;;;;;;;15.23;9.47;;;;;;;7.66;56.28;99615.22;5073974;28;20740;-66
2023/03/06 07:47:12;;;;;;;17.87;9.77;;;;;;;7.59;56.33;99615.97;5074345;28;20212;-69
2023/03/06 07:49:40;;;;;;;18.37;9.47;;;;;;;7.42;57.27;99620.25;5071332;28;20220;-67
2023/03/06 07:52:07;;;;;;;16.80;9.40;;;;;;;7.44;57.55;99621.78;5076103;28;20208;-66
2023/03/06 07:54:36;;;;;;;17.17;9.00;;;;;;;7.42;57.79;99628.16;5073161;28;20220;-67
2023/03/06 07:57:04;;;;;;;17.13;9.50;;;;;;;7.40;57.77;99630.94;5078171;28;20226;-67
2023/03/06 07:59:32;;;;;;;16.77;9.10;;;;;;;7.29;58.35;99625.06;5074695;28;20203;-67
2023/03/06 08:02:00;;;;;;;19.30;9.50;;;;;;;7.32;58.02;99627.38;5071838;28;20241;-68
2023/03/06 08:04:27;;;;;;;19.23;10.30;;;;;;;7.24;58.62;99624.66;5072427;28;20262;-67
2023/03/06 08:06:58;;;;;;;16.17;9.43;;;;;;;7.22;58.72;99637.16;5072556;28;20222;-67
2023/03/06 08:09:26;;;;;;;18.37;9.70;;;;;;;7.23;58.76;99639.66;5075709;28;20228;-65
2023/03/06 08:11:56;;;;;;;15.60;9.40;;;;;;;7.30;58.39;99637.28;5074004;28;20204;-67
2023/03/06 08:14:24;;;;;;;18.40;9.50;;;;;;;7.34;58.36;99636.81;5074016;28;20212;-66
2023/03/06 08:16:51;;;;;;;17.43;9.37;;;;;;;7.33;58.31;99645.72;5077039;28;20211;-67
2023/03/06 08:19:19;;;;;;;18.50;9.30;;;;;;;7.23;58.67;99639.66;5075179;28;20194;-67
2023/03/06 08:21:47;;;;;;;18.77;9.37;;;;;;;7.26;58.94;99641.16;5072195;28;20224;-68
2023/03/06 08:24:15;;;;;;;18.10;9.80;;;;;;;7.31;58.61;99646.81;5078081;28;20225;-68
2023/03/06 08:26:43;;;;;;;17.57;9.67;;;;;;;7.35;58.41;99650.84;5077260;28;20209;-68
2023/03/06 08:29:12;;;;;;;16.03;8.77;;;;;;;7.40;58.10;99653.84;5075734;28;20297;-69
2023/03/06 08:31:41;;;;;;;16.40;9.27;;;;;;;7.38;58.08;99643.47;5074392;28;20232;-68
2023/03/06 08:34:11;;;;;;;21.30;10.23;;;;;;;7.47;57.86;99652.31;5075452;28;20311;-68
2023/03/06 08:36:39;;;;;;;19.40;10.00;;;;;;;7.56;57.24;99656.69;5075044;28;20236;-67
2023/03/06 08:39:07;;;;;;;22.17;10.03;;;;;;;7.53;57.55;99652.53;5075908;28;20208;-64
2023/03/06 08:41:36;;;;;;;18.10;10.00;;;;;;;7.63;57.20;99641.94;5073513;28;20232;-64
2023/03/06 08:44:05;;;;;;;18.73;9.57;;;;;;;7.57;56.94;99658.31;5074933;28;20313;-68
2023/03/06 08:46:35;;;;;;;17.40;9.50;;;;;;;7.46;57.25;99654.13;5073396;28;21086;-67
2023/03/06 08:49:05;;;;;;;15.43;9.10;;;;;;;7.43;57.23;99657.03;5073458;28;20216;-67
2023/03/06 08:51:33;;;;;;;20.20;9.80;;;;;;;7.44;57.09;99658.69;5072217;28;20199;-65
2023/03/06 08:54:01;;;;;;;17.87;9.50;;;;;;;7.42;57.11;99665.91;5072570;28;20221;-67
2023/03/06 08:56:31;;;;;;;18.77;9.80;;;;;;;7.39;57.36;99668.84;5077633;28;20545;-69
2023/03/06 08:59:01;;;;;;;18.27;10.33;;;;;;;7.43;57.03;99666.75;5073426;28;20570;-67
2023/03/06 09:01:31;;;;;;;16.37;9.53;;;;;;;7.41;56.99;99656.34;5072488;28;20224;-65
2023/03/06 09:04:03;;;;;;;23.97;10.90;;;;;;;7.44;56.82;99663.97;5071961;28;20205;-66
2023/03/06 09:06:32;;;;;;;21.57;9.53;;;;;;;7.53;56.69;99665.72;5072214;28;20229;-64
2023/03/06 09:09:01;;;;;;;18.47;9.80;;;;;;;7.59;56.46;99661.66;5078170;28;20237;-66
2023/03/06 09:11:29;;;;;;;19.17;10.10;;;;;;;7.68;56.09;99658.13;5069375;28;20206;-68
2023/03/06 09:13:57;;;;;;;21.03;9.70;;;;;;;7.79;55.76;99662.38;5074142;28;20203;-69
2023/03/06 09:16:26;;;;;;;13.97;9.30;;;;;;;7.80;55.65;99671.94;5073187;28;20703;-68
2023/03/06 09:18:53;;;;;;;16.70;9.40;;;;;;;7.86;55.46;99656.34;5080157;28;20209;-68
2023/03/06 09:21:24;;;;;;;17.07;10.53;;;;;;;7.85;55.34;99657.31;5075273;28;20257;-68
2023/03/06 09:23:52;;;;;;;15.00;8.67;;;;;;;7.89;55.04;99658.69;5078509;28;20206;-67
2023/03/06 09:26:19;;;;;;;17.67;9.97;;;;;;;7.94;54.71;99656.41;5076308;28;20267;-66
2023/03/06 09:28:47;;;;;;;16.93;10.40;;;;;;;7.96;54.93;99664.19;5078614;28;20204;-67
2023/03/06 09:31:17;;;;;;;17.60;9.40;;;;;;;8.05;54.46;99667.72;5073942;28;20218;-66
2023/03/06 09:33:46;;;;;;;18.53;9.43;;;;;;;8.12;54.42;99672.25;5074677;28;20207;-67
2023/03/06 09:36:16;;;;;;;16.30;9.23;;;;;;;8.16;54.08;99660.41;5079009;28;20268;-67
2023/03/06 09:38:47;;;;;;;17.27;10.27;;;;;;;8.24;54.00;99675.50;5077558;28;20221;-66
2023/03/06 09:41:27;;;;;;;21.17;10.60;;;;;;;8.31;53.56;99668.63;5076276;28;20316;-66
2023/03/06 09:44:03;;;;;;;25.47;10.07;;;;;;;8.33;53.52;99674.59;5078772;28;20209;-67
2023/03/06 09:46:46;;;;;;;18.50;9.93;;;;;;;8.39;52.98;99668.69;5074891;28;20585;-66
2023/03/06 09:49:38;;;;;;;19.53;10.20;;;;;;;8.47;52.91;99668.75;5075731;28;20211;-66
2023/03/06 09:52:21;;;;;;;17.53;9.50;;;;;;;8.62;52.44;99667.22;5076401;28;20206;-66
2023/03/06 09:54:54;;;;;;;19.47;9.63;;;;;;;8.65;52.35;99666.91;5075452;28;20207;-72
2023/03/06 09:57:25;;;;;;;18.60;10.20;;;;;;;8.67;52.27;99662.31;5076100;28;20682;-66
2023/03/06 09:59:55;;;;;;;21.03;10.40;;;;;;;8.68;51.96;99661.31;5077112;28;20861;-67
2023/03/06 10:02:31;;;;;;;19.30;10.50;;;;;;;8.68;51.85;99665.78;5077821;28;21021;-67
2023/03/06 10:05:02;;;;;;;15.70;9.40;;;;;;;8.72;51.57;99661.00;5077815;28;20299;-66
2023/03/06 10:07:42;;;;;;;17.13;9.80;;;;;;;8.73;51.56;99667.94;5077370;28;20673;-67
2023/03/06 10:10:19;;;;;;;15.10;9.50;;;;;;;8.70;51.53;99663.81;5076635;28;20213;-66
2023/03/06 10:12:53;;;;;;;14.83;9.80;;;;;;;8.68;51.65;99671.91;5078040;28;20220;-66
2023/03/06 10:15:25;;;;;;;15.53;8.90;;;;;;;8.67;51.85;99672.88;5077672;28;20199;-65
2023/03/06 10:17:53;;;;;;;19.37;9.80;;;;;;;8.65;51.93;99666.91;5076338;28;21303;-65
2023/03/06 10:20:24;;;;;;;18.00;9.43;;;;;;;8.66;51.86;99676.50;5075918;28;20229;-66
2023/03/06 10:23:33;;;;;;;17.00;10.43;;;;;;;8.67;51.76;99675.53;5076034;28;20284;-66
2023/03/06 10:26:09;;;;;;;19.27;9.97;;;;;;;8.60;51.94;99666.56;5016392;28;20386;-67
2023/03/06 10:28:44;;;;;;;17.70;9.53;;;;;;;8.68;51.98;99665.78;5013091;28;20816;-67
2023/03/06 10:31:16;;;;;;;17.13;9.20;;;;;;;8.83;51.94;99671.31;5050997;28;20222;-65
2023/03/06 10:33:54;;;;;;;14.80;8.90;;;;;;;8.95;51.71;99667.44;5074101;28;20207;-65
2023/03/06 10:36:25;;;;;;;15.43;9.13;;;;;;;9.21;50.96;99667.38;5074902;28;20294;-65
2023/03/06 10:38:54;;;;;;;17.57;10.33;;;;;;;9.39;50.60;99660.19;5075516;28;20287;-67
2023/03/06 10:41:28;;;;;;;17.37;9.43;;;;;;;9.47;50.16;99664.69;5074894;28;20211;-66
2023/03/06 10:44:22;;;;;;;17.27;9.87;;;;;;;9.34;50.04;99665.13;5074216;28;20203;-67
2023/03/06 10:46:52;;;;;;;16.53;9.60;;;;;;;9.34;50.14;99662.47;5076154;28;20296;-66
2023/03/06 10:49:30;;;;;;;15.50;9.27;;;;;;;9.22;50.14;99664.59;5075997;28;20294;-68
2023/03/06 10:52:04;;;;;;;20.70;11.10;;;;;;;9.19;50.26;99669.34;5076470;28;20218;-68
2023/03/06 10:54:34;;;;;;;20.03;9.43;;;;;;;9.12;50.06;99668.34;5078971;28;20239;-66
2023/03/06 10:57:25;;;;;;;14.93;8.87;;;;;;;9.01;50.45;99664.16;5077648;28;20605;-66
2023/03/06 10:59:55;;;;;;;16.83;9.03;;;;;;;8.97;50.59;99663.63;5073574;28;20199;-66
2023/03/06 11:02:29;;;;;;;15.40;9.07;;;;;;;9.06;50.13;99664.50;5076397;28;20317;-67
2023/03/06 11:04:59;;;;;;;18.53;9.30;;;;;;;9.11;50.05;99656.94;5073953;28;20207;-65
2023/03/06 11:07:28;;;;;;;14.70;8.60;;;;;;;9.18;49.82;99657.94;5077739;28;20833;-66
2023/03/06 11:10:01;;;;;;;19.10;8.97;;;;;;;9.25;49.30;99653.66;5075877;28;20198;-67
2023/03/06 11:12:32;;;;;;;15.03;8.70;;;;;;;9.22;49.19;99651.38;5076420;28;20214;-66
2023/03/06 11:15:24;;;;;;;15.07;8.40;;;;;;;9.17;49.65;99648.34;5076588;28;20624;-66
2023/03/06 11:17:56;;;;;;;14.90;8.40;;;;;;;9.23;49.74;99660.97;5055521;28;20218;-66
2023/03/06 11:20:28;;;;;;;15.13;9.10;;;;;;;9.19;49.49;99656.13;5071731;28;20525;-66
2023/03/06 11:23:18;;;;;;;13.90;8.20;;;;;;;9.17;49.46;99648.34;5073702;28;20319;-68
2023/03/06 11:25:50;;;;;;;17.17;9.30;;;;;;;9.25;49.46;99648.38;5075262;28;20782;-66
2023/03/06 11:28:25;;;;;;;13.57;8.20;;;;;;;9.26;49.26;99647.41;5073647;28;20214;-67
2023/03/06 11:30:57;;;;;;;13.90;8.47;;;;;;;9.29;48.84;99655.03;5071867;28;20207;-66
2023/03/06 11:33:30;;;;;;;14.60;8.17;;;;;;;9.26;49.30;99650.03;5073617;28;20217;-67
2023/03/06 11:36:04;;;;;;;13.23;8.37;;;;;;;9.29;49.09;99641.78;5071135;28;20230;-64
2023/03/06 11:38:42;;;;;;;13.20;8.27;;;;;;;9.32;48.72;99638.81;5073224;28;20668;-67
2023/03/06 11:41:17;;;;;;;15.17;8.97;;;;;;;9.30;49.02;99640.81;5073264;28;20218;-66
2023/03/06 11:43:55;;;;;;;13.50;8.50;;;;;;;9.26;48.76;99631.53;5076660;28;20269;-67
2023/03/06 11:46:26;;;;;;;14.70;7.83;;;;;;;9.22;48.47;99627.56;5075375;28;20317;-66